sensor_id;sensor_type;location;lat;lon;timestamp;P1;durP1;ratioP1;P2;durP2;ratioP2
16403;SDS011;8311;50.158;8.642;2024-03-02T00:01:19;5.13;;;2.90;;
16403;SDS011;8311;50.158;8.642;2024-03-02T00:04:12;5.88;;;3.35;;
16403;SDS011;8311;50.158;8.642;2024-03-02T00:07:06;4.78;;;3.00;;
16403;SDS011;8311;50.158;8.642;2024-03-02T00:10:01;4.80;;;2.95;;
16403;SDS011;8311;50.158;8.642;2024-03-02T00:13:00;5.05;;;3.15;;
16403;SDS011;8311;50.158;8.642;2024-03-02T00:15:53;4.85;;;3.00;;
16403;SDS011;8311;50.158;8.642;2024-03-02T00:18:48;4.38;;;2.83;;
16403;SDS011;8311;50.158;8.642;2024-03-02T00:21:42;4.85;;;3.03;;
16403;SDS011;8311;50.158;8.642;2024-03-02T00:24:35;4.63;;;2.70;;
16403;SDS011;8311;50.158;8.642;2024-03-02T00:27:30;4.82;;;2.80;;
16403;SDS011;8311;50.158;8.642;2024-03-02T00:30:43;4.53;;;2.72;;
16403;SDS011;8311;50.158;8.642;2024-03-02T00:33:45;4.35;;;2.75;;
16403;SDS011;8311;50.158;8.642;2024-03-02T00:36:39;5.45;;;3.00;;
16403;SDS011;8311;50.158;8.642;2024-03-02T00:39:32;4.05;;;2.67;;
16403;SDS011;8311;50.158;8.642;2024-03-02T00:42:25;8.43;;;3.00;;
16403;SDS011;8311;50.158;8.642;2024-03-02T00:45:20;6.22;;;3.13;;
16403;SDS011;8311;50.158;8.642;2024-03-02T00:48:14;6.07;;;3.38;;
16403;SDS011;8311;50.158;8.642;2024-03-02T00:51:10;4.78;;;2.83;;
16403;SDS011;8311;50.158;8.642;2024-03-02T00:54:04;4.70;;;2.45;;
16403;SDS011;8311;50.158;8.642;2024-03-02T00:56:58;4.22;;;2.60;;
16403;SDS011;8311;50.158;8.642;2024-03-02T00:59:51;4.72;;;3.20;;
16403;SDS011;8311;50.158;8.642;2024-03-02T01:02:47;4.78;;;3.00;;
16403;SDS011;8311;50.158;8.642;2024-03-02T01:05:41;5.38;;;3.33;;
16403;SDS011;8311;50.158;8.642;2024-03-02T01:08:36;4.00;;;2.85;;
16403;SDS011;8311;50.158;8.642;2024-03-02T01:11:29;5.07;;;3.17;;
16403;SDS011;8311;50.158;8.642;2024-03-02T01:14:23;5.15;;;2.90;;
16403;SDS011;8311;50.158;8.642;2024-03-02T01:17:17;4.53;;;2.72;;
16403;SDS011;8311;50.158;8.642;2024-03-02T01:20:14;6.53;;;3.13;;
16403;SDS011;8311;50.158;8.642;2024-03-02T01:23:08;4.10;;;2.70;;
16403;SDS011;8311;50.158;8.642;2024-03-02T01:26:01;5.63;;;2.83;;
16403;SDS011;8311;50.158;8.642;2024-03-02T01:28:54;4.25;;;2.47;;
16403;SDS011;8311;50.158;8.642;2024-03-02T01:31:47;4.10;;;2.60;;
16403;SDS011;8311;50.158;8.642;2024-03-02T01:34:43;5.10;;;3.08;;
16403;SDS011;8311;50.158;8.642;2024-03-02T01:37:37;4.40;;;2.90;;
16403;SDS011;8311;50.158;8.642;2024-03-02T01:40:31;4.75;;;2.90;;
16403;SDS011;8311;50.158;8.642;2024-03-02T01:43:24;4.15;;;2.50;;
16403;SDS011;8311;50.158;8.642;2024-03-02T01:46:17;4.63;;;2.97;;
16403;SDS011;8311;50.158;8.642;2024-03-02T01:49:10;3.90;;;2.78;;
16403;SDS011;8311;50.158;8.642;2024-03-02T01:52:04;3.67;;;2.50;;
16403;SDS011;8311;50.158;8.642;2024-03-02T01:54:58;4.65;;;2.70;;
16403;SDS011;8311;50.158;8.642;2024-03-02T01:57:52;4.22;;;2.60;;
16403;SDS011;8311;50.158;8.642;2024-03-02T02:00:46;4.38;;;2.55;;
16403;SDS011;8311;50.158;8.642;2024-03-02T02:03:43;4.90;;;2.50;;
16403;SDS011;8311;50.158;8.642;2024-03-02T02:06:36;5.03;;;2.88;;
16403;SDS011;8311;50.158;8.642;2024-03-02T02:09:32;5.38;;;2.70;;
16403;SDS011;8311;50.158;8.642;2024-03-02T02:12:26;3.83;;;2.17;;
16403;SDS011;8311;50.158;8.642;2024-03-02T02:15:21;4.65;;;2.90;;
16403;SDS011;8311;50.158;8.642;2024-03-02T02:18:17;4.18;;;2.65;;
16403;SDS011;8311;50.158;8.642;2024-03-02T02:21:10;3.70;;;2.40;;
16403;SDS011;8311;50.158;8.642;2024-03-02T02:24:05;3.22;;;2.38;;
16403;SDS011;8311;50.158;8.642;2024-03-02T02:26:59;4.30;;;2.25;;
16403;SDS011;8311;50.158;8.642;2024-03-02T02:29:52;3.97;;;2.35;;
16403;SDS011;8311;50.158;8.642;2024-03-02T02:32:45;4.35;;;2.55;;
16403;SDS011;8311;50.158;8.642;2024-03-02T02:35:38;4.53;;;2.38;;
16403;SDS011;8311;50.158;8.642;2024-03-02T02:38:31;3.95;;;2.40;;
16403;SDS011;8311;50.158;8.642;2024-03-02T02:41:30;3.72;;;2.33;;
16403;SDS011;8311;50.158;8.642;2024-03-02T02:44:25;4.05;;;2.60;;
16403;SDS011;8311;50.158;8.642;2024-03-02T02:47:18;3.28;;;2.22;;
16403;SDS011;8311;50.158;8.642;2024-03-02T02:50:12;4.18;;;2.83;;
16403;SDS011;8311;50.158;8.642;2024-03-02T02:53:05;3.45;;;2.60;;
16403;SDS011;8311;50.158;8.642;2024-03-02T02:56:04;4.25;;;2.30;;
16403;SDS011;8311;50.158;8.642;2024-03-02T02:58:58;3.92;;;2.25;;
16403;SDS011;8311;50.158;8.642;2024-03-02T03:01:51;4.35;;;2.88;;
16403;SDS011;8311;50.158;8.642;2024-03-02T03:04:44;3.40;;;2.40;;
16403;SDS011;8311;50.158;8.642;2024-03-02T03:07:38;4.57;;;2.70;;
16403;SDS011;8311;50.158;8.642;2024-03-02T03:10:32;3.65;;;2.70;;
16403;SDS011;8311;50.158;8.642;2024-03-02T03:13:26;4.38;;;2.42;;
16403;SDS011;8311;50.158;8.642;2024-03-02T03:16:21;3.75;;;2.25;;
16403;SDS011;8311;50.158;8.642;2024-03-02T03:19:15;3.60;;;2.30;;
16403;SDS011;8311;50.158;8.642;2024-03-02T03:22:09;3.95;;;2.55;;
16403;SDS011;8311;50.158;8.642;2024-03-02T03:25:02;3.60;;;2.47;;
16403;SDS011;8311;50.158;8.642;2024-03-02T03:27:55;3.83;;;2.40;;
16403;SDS011;8311;50.158;8.642;2024-03-02T03:30:48;3.30;;;2.25;;
16403;SDS011;8311;50.158;8.642;2024-03-02T03:33:44;3.80;;;2.53;;
16403;SDS011;8311;50.158;8.642;2024-03-02T03:36:37;3.83;;;2.45;;
16403;SDS011;8311;50.158;8.642;2024-03-02T03:39:31;3.72;;;2.28;;
16403;SDS011;8311;50.158;8.642;2024-03-02T03:42:24;3.85;;;2.40;;
16403;SDS011;8311;50.158;8.642;2024-03-02T03:45:17;3.60;;;2.33;;
16403;SDS011;8311;50.158;8.642;2024-03-02T03:48:10;4.40;;;2.40;;
16403;SDS011;8311;50.158;8.642;2024-03-02T03:51:05;3.03;;;2.10;;
16403;SDS011;8311;50.158;8.642;2024-03-02T03:53:58;3.95;;;2.47;;
16403;SDS011;8311;50.158;8.642;2024-03-02T03:56:53;3.78;;;2.50;;
16403;SDS011;8311;50.158;8.642;2024-03-02T03:59:45;3.10;;;2.33;;
16403;SDS011;8311;50.158;8.642;2024-03-02T04:02:38;3.28;;;2.22;;
16403;SDS011;8311;50.158;8.642;2024-03-02T04:05:31;2.60;;;2.15;;
16403;SDS011;8311;50.158;8.642;2024-03-02T04:08:26;2.53;;;2.03;;
16403;SDS011;8311;50.158;8.642;2024-03-02T04:11:19;3.65;;;2.13;;
16403;SDS011;8311;50.158;8.642;2024-03-02T04:14:14;4.22;;;2.30;;
16403;SDS011;8311;50.158;8.642;2024-03-02T04:17:09;4.03;;;2.25;;
16403;SDS011;8311;50.158;8.642;2024-03-02T04:20:05;3.13;;;2.15;;
16403;SDS011;8311;50.158;8.642;2024-03-02T04:23:00;3.47;;;2.25;;
16403;SDS011;8311;50.158;8.642;2024-03-02T04:25:53;4.40;;;2.22;;
16403;SDS011;8311;50.158;8.642;2024-03-02T04:28:46;5.20;;;2.28;;
16403;SDS011;8311;50.158;8.642;2024-03-02T04:31:39;4.68;;;2.20;;
16403;SDS011;8311;50.158;8.642;2024-03-02T04:34:34;3.47;;;2.20;;
16403;SDS011;8311;50.158;8.642;2024-03-02T04:37:27;3.95;;;2.22;;
16403;SDS011;8311;50.158;8.642;2024-03-02T04:40:21;2.85;;;1.90;;
16403;SDS011;8311;50.158;8.642;2024-03-02T04:43:16;3.17;;;2.00;;
16403;SDS011;8311;50.158;8.642;2024-03-02T04:46:10;2.90;;;1.92;;
16403;SDS011;8311;50.158;8.642;2024-03-02T04:49:03;3.55;;;2.10;;
16403;SDS011;8311;50.158;8.642;2024-03-02T04:51:57;3.78;;;2.22;;
16403;SDS011;8311;50.158;8.642;2024-03-02T04:54:50;4.18;;;2.10;;
16403;SDS011;8311;50.158;8.642;2024-03-02T04:58:23;3.45;;;1.95;;
16403;SDS011;8311;50.158;8.642;2024-03-02T05:01:15;3.92;;;2.30;;
16403;SDS011;8311;50.158;8.642;2024-03-02T05:04:09;3.88;;;2.25;;
16403;SDS011;8311;50.158;8.642;2024-03-02T05:07:03;3.50;;;2.38;;
16403;SDS011;8311;50.158;8.642;2024-03-02T05:09:56;2.97;;;2.22;;
16403;SDS011;8311;50.158;8.642;2024-03-02T05:12:50;2.80;;;1.83;;
16403;SDS011;8311;50.158;8.642;2024-03-02T05:15:53;3.85;;;2.38;;
16403;SDS011;8311;50.158;8.642;2024-03-02T05:18:45;5.10;;;2.17;;
16403;SDS011;8311;50.158;8.642;2024-03-02T05:21:40;4.10;;;2.28;;
16403;SDS011;8311;50.158;8.642;2024-03-02T05:24:32;2.58;;;1.90;;
16403;SDS011;8311;50.158;8.642;2024-03-02T05:27:26;4.20;;;2.33;;
16403;SDS011;8311;50.158;8.642;2024-03-02T05:30:19;3.30;;;2.25;;
16403;SDS011;8311;50.158;8.642;2024-03-02T05:33:14;2.92;;;2.03;;
16403;SDS011;8311;50.158;8.642;2024-03-02T05:36:07;3.42;;;2.10;;
16403;SDS011;8311;50.158;8.642;2024-03-02T05:39:00;2.45;;;1.85;;
16403;SDS011;8311;50.158;8.642;2024-03-02T05:41:55;3.38;;;2.22;;
16403;SDS011;8311;50.158;8.642;2024-03-02T05:44:50;3.13;;;2.17;;
16403;SDS011;8311;50.158;8.642;2024-03-02T05:47:44;3.13;;;1.83;;
16403;SDS011;8311;50.158;8.642;2024-03-02T05:50:39;2.83;;;1.80;;
16403;SDS011;8311;50.158;8.642;2024-03-02T05:53:32;2.50;;;1.85;;
16403;SDS011;8311;50.158;8.642;2024-03-02T05:56:25;5.18;;;2.20;;
16403;SDS011;8311;50.158;8.642;2024-03-02T05:59:18;3.20;;;1.83;;
16403;SDS011;8311;50.158;8.642;2024-03-02T06:02:13;3.05;;;2.17;;
16403;SDS011;8311;50.158;8.642;2024-03-02T06:05:05;2.65;;;1.83;;
16403;SDS011;8311;50.158;8.642;2024-03-02T06:08:01;3.85;;;2.20;;
16403;SDS011;8311;50.158;8.642;2024-03-02T06:10:54;3.42;;;2.03;;
16403;SDS011;8311;50.158;8.642;2024-03-02T06:13:47;3.35;;;2.10;;
16403;SDS011;8311;50.158;8.642;2024-03-02T06:16:40;3.78;;;2.20;;
16403;SDS011;8311;50.158;8.642;2024-03-02T06:19:35;2.80;;;1.67;;
16403;SDS011;8311;50.158;8.642;2024-03-02T06:22:28;3.40;;;2.17;;
16403;SDS011;8311;50.158;8.642;2024-03-02T06:25:23;3.00;;;1.90;;
16403;SDS011;8311;50.158;8.642;2024-03-02T06:28:16;3.00;;;1.98;;
16403;SDS011;8311;50.158;8.642;2024-03-02T06:31:08;4.60;;;2.08;;
16403;SDS011;8311;50.158;8.642;2024-03-02T06:34:03;3.42;;;2.38;;
16403;SDS011;8311;50.158;8.642;2024-03-02T06:36:56;3.83;;;2.08;;
16403;SDS011;8311;50.158;8.642;2024-03-02T06:39:49;3.95;;;1.83;;
16403;SDS011;8311;50.158;8.642;2024-03-02T06:42:44;3.05;;;1.90;;
16403;SDS011;8311;50.158;8.642;2024-03-02T06:45:37;4.55;;;2.33;;
16403;SDS011;8311;50.158;8.642;2024-03-02T06:48:30;4.30;;;2.45;;
16403;SDS011;8311;50.158;8.642;2024-03-02T06:51:25;3.60;;;1.92;;
16403;SDS011;8311;50.158;8.642;2024-03-02T06:54:17;3.22;;;1.98;;
16403;SDS011;8311;50.158;8.642;2024-03-02T06:57:11;2.95;;;1.90;;
16403;SDS011;8311;50.158;8.642;2024-03-02T07:00:05;3.50;;;2.00;;
16403;SDS011;8311;50.158;8.642;2024-03-02T07:03:01;4.00;;;2.45;;
16403;SDS011;8311;50.158;8.642;2024-03-02T07:05:53;2.85;;;2.00;;
16403;SDS011;8311;50.158;8.642;2024-03-02T07:08:47;2.88;;;1.90;;
16403;SDS011;8311;50.158;8.642;2024-03-02T07:11:39;3.20;;;2.25;;
16403;SDS011;8311;50.158;8.642;2024-03-02T07:14:33;2.97;;;1.90;;
16403;SDS011;8311;50.158;8.642;2024-03-02T07:17:45;3.78;;;1.80;;
16403;SDS011;8311;50.158;8.642;2024-03-02T07:20:39;3.60;;;2.13;;
16403;SDS011;8311;50.158;8.642;2024-03-02T07:23:32;3.95;;;1.85;;
16403;SDS011;8311;50.158;8.642;2024-03-02T07:26:26;3.08;;;1.80;;
16403;SDS011;8311;50.158;8.642;2024-03-02T07:29:23;4.60;;;2.25;;
16403;SDS011;8311;50.158;8.642;2024-03-02T07:32:16;5.30;;;2.22;;
16403;SDS011;8311;50.158;8.642;2024-03-02T07:35:10;3.28;;;1.88;;
16403;SDS011;8311;50.158;8.642;2024-03-02T07:38:03;4.57;;;1.70;;
16403;SDS011;8311;50.158;8.642;2024-03-02T07:40:57;3.72;;;2.00;;
16403;SDS011;8311;50.158;8.642;2024-03-02T07:43:50;5.55;;;1.85;;
16403;SDS011;8311;50.158;8.642;2024-03-02T07:46:45;5.05;;;1.90;;
16403;SDS011;8311;50.158;8.642;2024-03-02T07:49:38;11.27;;;2.85;;
16403;SDS011;8311;50.158;8.642;2024-03-02T07:52:33;6.13;;;2.65;;
16403;SDS011;8311;50.158;8.642;2024-03-02T07:55:27;7.30;;;4.18;;
16403;SDS011;8311;50.158;8.642;2024-03-02T07:58:20;8.30;;;4.70;;
16403;SDS011;8311;50.158;8.642;2024-03-02T08:01:13;10.35;;;5.75;;
16403;SDS011;8311;50.158;8.642;2024-03-02T08:04:06;7.90;;;5.57;;
16403;SDS011;8311;50.158;8.642;2024-03-02T08:06:59;9.63;;;5.63;;
16403;SDS011;8311;50.158;8.642;2024-03-02T08:09:54;9.43;;;6.03;;
16403;SDS011;8311;50.158;8.642;2024-03-02T08:12:47;8.70;;;5.95;;
16403;SDS011;8311;50.158;8.642;2024-03-02T08:15:41;8.55;;;6.05;;
16403;SDS011;8311;50.158;8.642;2024-03-02T08:18:34;7.22;;;4.90;;
16403;SDS011;8311;50.158;8.642;2024-03-02T08:21:27;7.05;;;4.90;;
16403;SDS011;8311;50.158;8.642;2024-03-02T08:24:21;8.02;;;4.32;;
16403;SDS011;8311;50.158;8.642;2024-03-02T08:27:17;6.53;;;3.60;;
16403;SDS011;8311;50.158;8.642;2024-03-02T08:30:11;7.78;;;3.95;;
16403;SDS011;8311;50.158;8.642;2024-03-02T08:33:05;5.70;;;3.53;;
16403;SDS011;8311;50.158;8.642;2024-03-02T08:35:59;6.18;;;3.58;;
16403;SDS011;8311;50.158;8.642;2024-03-02T08:38:52;5.00;;;3.30;;
16403;SDS011;8311;50.158;8.642;2024-03-02T08:41:46;6.82;;;3.67;;
16403;SDS011;8311;50.158;8.642;2024-03-02T08:44:42;4.85;;;3.20;;
16403;SDS011;8311;50.158;8.642;2024-03-02T08:47:35;6.28;;;3.42;;
16403;SDS011;8311;50.158;8.642;2024-03-02T08:50:32;6.63;;;3.08;;
16403;SDS011;8311;50.158;8.642;2024-03-02T08:53:26;5.40;;;3.35;;
16403;SDS011;8311;50.158;8.642;2024-03-02T08:56:22;5.28;;;2.58;;
16403;SDS011;8311;50.158;8.642;2024-03-02T08:59:16;3.83;;;2.60;;
16403;SDS011;8311;50.158;8.642;2024-03-02T09:02:11;5.45;;;3.13;;
16403;SDS011;8311;50.158;8.642;2024-03-02T09:05:05;7.75;;;2.65;;
16403;SDS011;8311;50.158;8.642;2024-03-02T09:08:00;6.05;;;3.13;;
16403;SDS011;8311;50.158;8.642;2024-03-02T09:10:55;5.55;;;3.30;;
16403;SDS011;8311;50.158;8.642;2024-03-02T09:13:48;8.25;;;3.05;;
16403;SDS011;8311;50.158;8.642;2024-03-02T09:16:42;6.30;;;3.22;;
16403;SDS011;8311;50.158;8.642;2024-03-02T09:19:37;6.55;;;2.90;;
16403;SDS011;8311;50.158;8.642;2024-03-02T09:22:32;5.22;;;2.78;;
16403;SDS011;8311;50.158;8.642;2024-03-02T09:25:24;7.68;;;3.30;;
16403;SDS011;8311;50.158;8.642;2024-03-02T09:28:17;7.13;;;3.08;;
16403;SDS011;8311;50.158;8.642;2024-03-02T09:31:12;5.88;;;2.92;;
16403;SDS011;8311;50.158;8.642;2024-03-02T09:34:05;7.75;;;3.08;;
16403;SDS011;8311;50.158;8.642;2024-03-02T09:37:00;7.10;;;3.15;;
16403;SDS011;8311;50.158;8.642;2024-03-02T09:39:54;5.70;;;3.00;;
16403;SDS011;8311;50.158;8.642;2024-03-02T09:42:47;7.28;;;3.30;;
16403;SDS011;8311;50.158;8.642;2024-03-02T09:45:43;7.07;;;2.92;;
16403;SDS011;8311;50.158;8.642;2024-03-02T09:48:38;9.63;;;3.47;;
16403;SDS011;8311;50.158;8.642;2024-03-02T09:51:32;5.35;;;2.95;;
16403;SDS011;8311;50.158;8.642;2024-03-02T09:54:28;6.82;;;3.40;;
16403;SDS011;8311;50.158;8.642;2024-03-02T09:57:21;10.45;;;3.17;;
16403;SDS011;8311;50.158;8.642;2024-03-02T10:00:15;5.03;;;2.80;;
16403;SDS011;8311;50.158;8.642;2024-03-02T10:03:11;8.18;;;2.80;;
16403;SDS011;8311;50.158;8.642;2024-03-02T10:06:21;7.43;;;2.70;;
16403;SDS011;8311;50.158;8.642;2024-03-02T10:09:19;6.72;;;2.92;;
16403;SDS011;8311;50.158;8.642;2024-03-02T10:12:21;6.00;;;2.50;;
16403;SDS011;8311;50.158;8.642;2024-03-02T10:15:14;6.10;;;3.05;;
16403;SDS011;8311;50.158;8.642;2024-03-02T10:18:26;6.47;;;3.05;;
16403;SDS011;8311;50.158;8.642;2024-03-02T10:21:19;6.63;;;2.85;;
16403;SDS011;8311;50.158;8.642;2024-03-02T10:24:16;5.25;;;3.22;;
16403;SDS011;8311;50.158;8.642;2024-03-02T10:27:16;6.05;;;2.75;;
16403;SDS011;8311;50.158;8.642;2024-03-02T10:30:11;7.05;;;3.22;;
16403;SDS011;8311;50.158;8.642;2024-03-02T10:33:05;5.75;;;3.00;;
16403;SDS011;8311;50.158;8.642;2024-03-02T10:35:59;6.60;;;3.05;;
16403;SDS011;8311;50.158;8.642;2024-03-02T10:38:52;7.32;;;3.00;;
16403;SDS011;8311;50.158;8.642;2024-03-02T10:41:48;4.97;;;2.63;;
16403;SDS011;8311;50.158;8.642;2024-03-02T10:44:45;6.95;;;2.55;;
16403;SDS011;8311;50.158;8.642;2024-03-02T10:47:39;4.68;;;2.58;;
16403;SDS011;8311;50.158;8.642;2024-03-02T10:50:33;6.25;;;3.22;;
16403;SDS011;8311;50.158;8.642;2024-03-02T10:53:28;4.95;;;2.72;;
16403;SDS011;8311;50.158;8.642;2024-03-02T10:56:22;7.63;;;3.13;;
16403;SDS011;8311;50.158;8.642;2024-03-02T10:59:22;4.65;;;2.75;;
16403;SDS011;8311;50.158;8.642;2024-03-02T11:02:21;5.18;;;2.60;;
16403;SDS011;8311;50.158;8.642;2024-03-02T11:05:19;4.80;;;2.55;;
16403;SDS011;8311;50.158;8.642;2024-03-02T11:08:19;6.75;;;2.75;;
16403;SDS011;8311;50.158;8.642;2024-03-02T11:11:22;4.65;;;2.85;;
16403;SDS011;8311;50.158;8.642;2024-03-02T11:14:21;10.82;;;2.97;;
16403;SDS011;8311;50.158;8.642;2024-03-02T11:17:18;6.93;;;3.08;;
16403;SDS011;8311;50.158;8.642;2024-03-02T11:20:13;4.05;;;2.53;;
16403;SDS011;8311;50.158;8.642;2024-03-02T11:23:10;5.20;;;2.80;;
16403;SDS011;8311;50.158;8.642;2024-03-02T11:26:18;5.95;;;2.83;;
16403;SDS011;8311;50.158;8.642;2024-03-02T11:29:21;7.53;;;2.92;;
16403;SDS011;8311;50.158;8.642;2024-03-02T11:32:38;4.13;;;2.88;;
16403;SDS011;8311;50.158;8.642;2024-03-02T11:35:32;5.60;;;2.33;;
16403;SDS011;8311;50.158;8.642;2024-03-02T11:38:32;5.28;;;2.67;;
16403;SDS011;8311;50.158;8.642;2024-03-02T11:41:26;5.47;;;2.65;;
16403;SDS011;8311;50.158;8.642;2024-03-02T11:44:19;5.78;;;2.78;;
16403;SDS011;8311;50.158;8.642;2024-03-02T11:47:14;5.78;;;2.60;;
16403;SDS011;8311;50.158;8.642;2024-03-02T11:50:08;5.00;;;3.00;;
16403;SDS011;8311;50.158;8.642;2024-03-02T11:53:04;5.45;;;2.53;;
16403;SDS011;8311;50.158;8.642;2024-03-02T11:55:59;6.18;;;2.80;;
16403;SDS011;8311;50.158;8.642;2024-03-02T11:58:54;4.97;;;2.55;;
16403;SDS011;8311;50.158;8.642;2024-03-02T12:01:47;4.15;;;2.53;;
16403;SDS011;8311;50.158;8.642;2024-03-02T12:04:42;5.10;;;2.55;;
16403;SDS011;8311;50.158;8.642;2024-03-02T12:07:35;4.95;;;2.88;;
16403;SDS011;8311;50.158;8.642;2024-03-02T12:10:30;5.13;;;2.65;;
16403;SDS011;8311;50.158;8.642;2024-03-02T12:13:24;5.30;;;2.63;;
16403;SDS011;8311;50.158;8.642;2024-03-02T12:16:22;5.03;;;2.78;;
16403;SDS011;8311;50.158;8.642;2024-03-02T12:19:16;5.57;;;2.67;;
16403;SDS011;8311;50.158;8.642;2024-03-02T12:22:12;5.30;;;2.65;;
16403;SDS011;8311;50.158;8.642;2024-03-02T12:25:05;6.05;;;2.50;;
16403;SDS011;8311;50.158;8.642;2024-03-02T12:28:01;3.28;;;2.30;;
16403;SDS011;8311;50.158;8.642;2024-03-02T12:30:55;6.15;;;2.70;;
16403;SDS011;8311;50.158;8.642;2024-03-02T12:33:49;4.47;;;2.33;;
16403;SDS011;8311;50.158;8.642;2024-03-02T12:36:43;4.20;;;2.58;;
16403;SDS011;8311;50.158;8.642;2024-03-02T12:39:39;4.32;;;2.88;;
16403;SDS011;8311;50.158;8.642;2024-03-02T12:42:33;5.05;;;2.58;;
16403;SDS011;8311;50.158;8.642;2024-03-02T12:45:28;4.68;;;2.33;;
16403;SDS011;8311;50.158;8.642;2024-03-02T12:48:22;3.78;;;2.33;;
16403;SDS011;8311;50.158;8.642;2024-03-02T12:51:15;5.22;;;2.78;;
16403;SDS011;8311;50.158;8.642;2024-03-02T12:54:09;4.35;;;2.45;;
16403;SDS011;8311;50.158;8.642;2024-03-02T12:57:03;4.80;;;2.65;;
16403;SDS011;8311;50.158;8.642;2024-03-02T12:59:59;4.72;;;3.10;;
16403;SDS011;8311;50.158;8.642;2024-03-02T13:02:56;3.90;;;2.53;;
16403;SDS011;8311;50.158;8.642;2024-03-02T13:05:54;4.00;;;2.33;;
16403;SDS011;8311;50.158;8.642;2024-03-02T13:08:48;5.18;;;2.70;;
16403;SDS011;8311;50.158;8.642;2024-03-02T13:11:41;3.58;;;2.35;;
16403;SDS011;8311;50.158;8.642;2024-03-02T13:14:35;5.28;;;2.58;;
16403;SDS011;8311;50.158;8.642;2024-03-02T13:17:29;5.35;;;2.60;;
16403;SDS011;8311;50.158;8.642;2024-03-02T13:20:31;3.58;;;2.28;;
16403;SDS011;8311;50.158;8.642;2024-03-02T13:23:25;3.45;;;2.25;;
16403;SDS011;8311;50.158;8.642;2024-03-02T13:26:18;7.20;;;2.30;;
16403;SDS011;8311;50.158;8.642;2024-03-02T13:29:12;5.20;;;2.65;;
16403;SDS011;8311;50.158;8.642;2024-03-02T13:32:05;5.30;;;2.67;;
16403;SDS011;8311;50.158;8.642;2024-03-02T13:34:59;5.45;;;2.50;;
16403;SDS011;8311;50.158;8.642;2024-03-02T13:37:55;4.20;;;2.42;;
16403;SDS011;8311;50.158;8.642;2024-03-02T13:40:49;3.10;;;2.10;;
16403;SDS011;8311;50.158;8.642;2024-03-02T13:43:43;4.57;;;2.35;;
16403;SDS011;8311;50.158;8.642;2024-03-02T13:46:37;3.15;;;2.17;;
16403;SDS011;8311;50.158;8.642;2024-03-02T13:49:30;3.95;;;2.40;;
16403;SDS011;8311;50.158;8.642;2024-03-02T13:52:29;4.22;;;2.00;;
16403;SDS011;8311;50.158;8.642;2024-03-02T13:55:23;5.38;;;2.30;;
16403;SDS011;8311;50.158;8.642;2024-03-02T13:58:17;4.70;;;2.50;;
16403;SDS011;8311;50.158;8.642;2024-03-02T14:01:12;3.35;;;2.20;;
16403;SDS011;8311;50.158;8.642;2024-03-02T14:04:06;4.47;;;2.15;;
16403;SDS011;8311;50.158;8.642;2024-03-02T14:06:59;3.05;;;2.00;;
16403;SDS011;8311;50.158;8.642;2024-03-02T14:09:53;3.58;;;1.85;;
16403;SDS011;8311;50.158;8.642;2024-03-02T14:12:49;2.85;;;2.08;;
16403;SDS011;8311;50.158;8.642;2024-03-02T14:15:42;3.50;;;2.08;;
16403;SDS011;8311;50.158;8.642;2024-03-02T14:18:36;3.13;;;2.05;;
16403;SDS011;8311;50.158;8.642;2024-03-02T14:21:30;4.85;;;2.10;;
16403;SDS011;8311;50.158;8.642;2024-03-02T14:24:23;2.95;;;1.95;;
16403;SDS011;8311;50.158;8.642;2024-03-02T14:27:17;2.80;;;1.85;;
16403;SDS011;8311;50.158;8.642;2024-03-02T14:30:30;3.45;;;2.03;;
16403;SDS011;8311;50.158;8.642;2024-03-02T14:33:24;3.65;;;1.92;;
16403;SDS011;8311;50.158;8.642;2024-03-02T14:36:17;3.00;;;1.98;;
16403;SDS011;8311;50.158;8.642;2024-03-02T14:39:11;4.82;;;2.00;;
16403;SDS011;8311;50.158;8.642;2024-03-02T14:42:05;3.88;;;1.92;;
16403;SDS011;8311;50.158;8.642;2024-03-02T14:44:59;3.20;;;1.80;;
16403;SDS011;8311;50.158;8.642;2024-03-02T14:47:57;4.68;;;2.22;;
16403;SDS011;8311;50.158;8.642;2024-03-02T14:50:51;3.53;;;1.70;;
16403;SDS011;8311;50.158;8.642;2024-03-02T14:53:44;2.75;;;2.00;;
16403;SDS011;8311;50.158;8.642;2024-03-02T14:56:37;3.85;;;2.17;;
16403;SDS011;8311;50.158;8.642;2024-03-02T14:59:30;3.63;;;1.90;;
16403;SDS011;8311;50.158;8.642;2024-03-02T15:02:23;3.28;;;1.80;;
16403;SDS011;8311;50.158;8.642;2024-03-02T15:05:22;4.53;;;2.10;;
16403;SDS011;8311;50.158;8.642;2024-03-02T15:08:18;3.20;;;2.03;;
16403;SDS011;8311;50.158;8.642;2024-03-02T15:11:11;3.55;;;1.88;;
16403;SDS011;8311;50.158;8.642;2024-03-02T15:14:06;5.72;;;2.40;;
16403;SDS011;8311;50.158;8.642;2024-03-02T15:16:59;4.05;;;2.00;;
16403;SDS011;8311;50.158;8.642;2024-03-02T15:19:52;2.78;;;2.17;;
16403;SDS011;8311;50.158;8.642;2024-03-02T15:22:46;3.55;;;2.10;;
16403;SDS011;8311;50.158;8.642;2024-03-02T15:25:40;2.85;;;1.90;;
16403;SDS011;8311;50.158;8.642;2024-03-02T15:28:34;3.38;;;1.83;;
16403;SDS011;8311;50.158;8.642;2024-03-02T15:31:27;4.82;;;2.08;;
16403;SDS011;8311;50.158;8.642;2024-03-02T15:34:21;3.00;;;1.98;;
16403;SDS011;8311;50.158;8.642;2024-03-02T15:37:14;4.53;;;1.88;;
16403;SDS011;8311;50.158;8.642;2024-03-02T15:40:10;3.78;;;1.80;;
16403;SDS011;8311;50.158;8.642;2024-03-02T15:43:04;2.95;;;1.90;;
16403;SDS011;8311;50.158;8.642;2024-03-02T15:45:58;3.20;;;2.05;;
16403;SDS011;8311;50.158;8.642;2024-03-02T15:48:52;5.38;;;2.42;;
16403;SDS011;8311;50.158;8.642;2024-03-02T15:51:45;2.70;;;1.67;;
16403;SDS011;8311;50.158;8.642;2024-03-02T15:54:38;3.00;;;1.70;;
16403;SDS011;8311;50.158;8.642;2024-03-02T15:57:33;3.72;;;2.10;;
16403;SDS011;8311;50.158;8.642;2024-03-02T16:00:27;3.67;;;1.70;;
16403;SDS011;8311;50.158;8.642;2024-03-02T16:03:21;3.83;;;2.03;;
16403;SDS011;8311;50.158;8.642;2024-03-02T16:06:14;3.55;;;2.20;;
16403;SDS011;8311;50.158;8.642;2024-03-02T16:09:08;4.18;;;2.00;;
16403;SDS011;8311;50.158;8.642;2024-03-02T16:12:02;2.22;;;1.60;;
16403;SDS011;8311;50.158;8.642;2024-03-02T16:14:57;3.75;;;1.90;;
16403;SDS011;8311;50.158;8.642;2024-03-02T16:17:50;2.97;;;1.70;;
16403;SDS011;8311;50.158;8.642;2024-03-02T16:20:44;3.45;;;1.58;;
16403;SDS011;8311;50.158;8.642;2024-03-02T16:23:38;3.30;;;1.77;;
16403;SDS011;8311;50.158;8.642;2024-03-02T16:26:33;3.50;;;1.80;;
16403;SDS011;8311;50.158;8.642;2024-03-02T16:29:27;2.15;;;1.83;;
16403;SDS011;8311;50.158;8.642;2024-03-02T16:32:21;3.92;;;2.17;;
16403;SDS011;8311;50.158;8.642;2024-03-02T16:35:14;3.30;;;2.20;;
16403;SDS011;8311;50.158;8.642;2024-03-02T16:38:09;2.88;;;1.73;;
16403;SDS011;8311;50.158;8.642;2024-03-02T16:41:04;3.63;;;1.98;;
16403;SDS011;8311;50.158;8.642;2024-03-02T16:43:59;4.40;;;2.03;;
16403;SDS011;8311;50.158;8.642;2024-03-02T16:46:54;3.13;;;1.60;;
16403;SDS011;8311;50.158;8.642;2024-03-02T16:49:48;2.75;;;1.60;;
16403;SDS011;8311;50.158;8.642;2024-03-02T16:52:42;2.80;;;1.80;;
16403;SDS011;8311;50.158;8.642;2024-03-02T16:55:36;3.55;;;1.90;;
16403;SDS011;8311;50.158;8.642;2024-03-02T16:58:29;2.40;;;1.60;;
16403;SDS011;8311;50.158;8.642;2024-03-02T17:01:23;3.63;;;1.80;;
16403;SDS011;8311;50.158;8.642;2024-03-02T17:04:18;2.72;;;1.60;;
16403;SDS011;8311;50.158;8.642;2024-03-02T17:07:17;3.92;;;1.92;;
16403;SDS011;8311;50.158;8.642;2024-03-02T17:10:10;3.08;;;2.03;;
16403;SDS011;8311;50.158;8.642;2024-03-02T17:13:04;2.75;;;1.90;;
16403;SDS011;8311;50.158;8.642;2024-03-02T17:15:57;3.40;;;1.73;;
16403;SDS011;8311;50.158;8.642;2024-03-02T17:18:51;3.50;;;1.98;;
16403;SDS011;8311;50.158;8.642;2024-03-02T17:21:45;2.75;;;1.70;;
16403;SDS011;8311;50.158;8.642;2024-03-02T17:24:40;4.18;;;2.42;;
16403;SDS011;8311;50.158;8.642;2024-03-02T17:27:33;3.45;;;2.22;;
16403;SDS011;8311;50.158;8.642;2024-03-02T17:30:27;5.22;;;2.28;;
16403;SDS011;8311;50.158;8.642;2024-03-02T17:33:21;3.83;;;2.30;;
16403;SDS011;8311;50.158;8.642;2024-03-02T17:36:14;4.65;;;2.10;;
16403;SDS011;8311;50.158;8.642;2024-03-02T17:39:08;4.50;;;1.73;;
16403;SDS011;8311;50.158;8.642;2024-03-02T17:42:02;2.92;;;1.88;;
16403;SDS011;8311;50.158;8.642;2024-03-02T17:44:56;2.95;;;2.10;;
16403;SDS011;8311;50.158;8.642;2024-03-02T17:47:49;3.25;;;1.92;;